ZSPDZSSS

Guest
Details From ZSPD - PUDONG
To ZSSS - HONGQIAO INTL
Flight Number -
Tags generated
Created
Modified
Stats Distance 25 nm / 46 km
Max Altitude 700 ft / 213 m
Waypoints 3
Social Downloads 1
Likes 0
Share VATSIM

Download

Looking for another format? Having issues loading an existing format? Contact us
Advertisement - Login to hide

Notes

Basic altitude profile: - Ascent Rate: 2500ft/min - Ascent Speed: 250kts - Cruise Altitude: 35000ft - Cruise Speed: 420kts - Descent Rate: 1500ft/min - Descent Speed: 250kts Options: - Use NATs: yes - Use PACOTS: yes - Use low airways: yes - Use high airways: yes

Route

ZSPD PUD ZSSS

ID Type Via Altitude Latitude Longitude Leg Dist Tot Dist Heading (true) Name
O ZSPD APT - 0 ft / 0 m 31.14343˚ 121.80509˚ - 0 nm - PUDONG
PUD VOR - 700 ft / 213 m 31.16833˚ 121.78000˚ 1 nm 1 nm 319° / 319° PUDONG VOR-DME
O ZSSS APT - 0 ft / 0 m 31.19787˚ 121.33632˚ 22 nm 24 nm 275° / 274° HONGQIAO INTL

Altitude Profile

Advertisement - Login to hide

ZSPD

Details ICAO ZSPD (PVG)
Name PUDONG
Region China
Timezone Asia/Shanghai (UTC+8.0)
Stats Elevation 13 ft / 4 m (AMSL)
Location 31.143427° 121.805092°
Runways 2
Magnetic Variation 5.979° W

METAR

ZSPD 151400Z 36007MPS 8000 BKN010 OVC040 08/06 Q1029 NOSIG

Decode

TAF

Not found

Departure Runways

ID Width Length Bearing (true) Bearing (mag) Surface Threshold Offset Overrun Length
16 197 ft / 60 m 12,500 ft / 3,810 m 162.09° 168.07° Concrete 0 ft / 0 m 395 ft / 120 m
17 197 ft / 60 m 13,155 ft / 4,010 m 162.09° 168.07° Concrete 0 ft / 0 m 196 ft / 60 m
34 197 ft / 60 m 12,500 ft / 3,810 m 342.10° 348.08° Concrete 0 ft / 0 m 395 ft / 120 m
35 197 ft / 60 m 13,155 ft / 4,010 m 342.10° 348.08° Concrete 0 ft / 0 m 196 ft / 60 m

ZSSS

Details ICAO ZSSS (SHA)
Name HONGQIAO INTL
Region China
Timezone Asia/Shanghai (UTC+8.0)
Stats Elevation 10 ft / 3 m (AMSL)
Location 31.197875° 121.336319°
Runways 1
Magnetic Variation 5.917° W

METAR

ZSSS 151400Z 36005MPS 9999 -RA BKN011 OVC030 07/06 Q1029 NOSIG

Decode

TAF

Not found

Destination Runways

ID Width Length Bearing (true) Bearing (mag) Surface Threshold Offset Overrun Length
18 190 ft / 58 m 11,234 ft / 3,424 m 177.21° 183.13° Asphalt 657 ft / 200 m 520 ft / 159 m
36 190 ft / 58 m 11,234 ft / 3,424 m 357.21° 3.13° Asphalt 657 ft / 200 m 520 ft / 159 m

Approach Navaids

Runway Type Ident Frequency Range Bearing (true) Bearing (mag) Slope Elevation
18 Localiser IPK 109.10 MHz 18 nm / 33 km 177.03° 182.95° - 10 ft / 3 m (AMSL)
18 Glidescope IPK 109.10 MHz 10 nm / 19 km 177.21° 183.13° 3.00° 8 ft / 2 m (AMSL)
36 Localiser IWB 110.30 MHz 18 nm / 33 km 356.95° 2.86° - 8 ft / 2 m (AMSL)
36 Glidescope IWB 110.30 MHz 10 nm / 19 km 357.21° 3.13° 3.00° 10 ft / 3 m (AMSL)

Popular Alternatives